sensor_id;sensor_type;location;lat;lon;timestamp;P1;durP1;ratioP1;P2;durP2;ratioP2
17345;SDS011;8790;53.590;10.002;2023-02-28T00:01:52;3.83;;;1.60;;
17345;SDS011;8790;53.590;10.002;2023-02-28T00:04:25;3.30;;;1.70;;
17345;SDS011;8790;53.590;10.002;2023-02-28T00:06:57;4.77;;;1.70;;
17345;SDS011;8790;53.590;10.002;2023-02-28T00:09:28;3.90;;;1.60;;
17345;SDS011;8790;53.590;10.002;2023-02-28T00:12:00;4.37;;;1.80;;
17345;SDS011;8790;53.590;10.002;2023-02-28T00:14:40;3.10;;;2.03;;
17345;SDS011;8790;53.590;10.002;2023-02-28T00:17:11;3.93;;;1.90;;
17345;SDS011;8790;53.590;10.002;2023-02-28T00:19:44;2.83;;;1.77;;
17345;SDS011;8790;53.590;10.002;2023-02-28T00:22:16;2.73;;;1.63;;
17345;SDS011;8790;53.590;10.002;2023-02-28T00:24:48;2.90;;;1.93;;
17345;SDS011;8790;53.590;10.002;2023-02-28T00:27:20;3.97;;;1.77;;
17345;SDS011;8790;53.590;10.002;2023-02-28T00:29:51;3.83;;;2.00;;
17345;SDS011;8790;53.590;10.002;2023-02-28T00:32:24;5.87;;;2.17;;
17345;SDS011;8790;53.590;10.002;2023-02-28T00:34:57;2.87;;;1.90;;
17345;SDS011;8790;53.590;10.002;2023-02-28T00:37:28;4.57;;;2.07;;
17345;SDS011;8790;53.590;10.002;2023-02-28T00:40:00;3.93;;;1.90;;
17345;SDS011;8790;53.590;10.002;2023-02-28T00:42:35;7.40;;;1.93;;
17345;SDS011;8790;53.590;10.002;2023-02-28T00:45:07;3.27;;;1.80;;
17345;SDS011;8790;53.590;10.002;2023-02-28T00:47:41;4.27;;;1.70;;
17345;SDS011;8790;53.590;10.002;2023-02-28T00:50:14;3.13;;;2.13;;
17345;SDS011;8790;53.590;10.002;2023-02-28T00:52:47;4.03;;;2.20;;
17345;SDS011;8790;53.590;10.002;2023-02-28T00:55:19;5.20;;;2.20;;
17345;SDS011;8790;53.590;10.002;2023-02-28T00:57:52;6.77;;;2.17;;
17345;SDS011;8790;53.590;10.002;2023-02-28T01:00:23;4.63;;;2.43;;
17345;SDS011;8790;53.590;10.002;2023-02-28T01:02:55;4.10;;;2.33;;
17345;SDS011;8790;53.590;10.002;2023-02-28T01:05:28;4.30;;;2.47;;
17345;SDS011;8790;53.590;10.002;2023-02-28T01:08:00;3.73;;;2.10;;
17345;SDS011;8790;53.590;10.002;2023-02-28T01:10:32;3.80;;;2.30;;
17345;SDS011;8790;53.590;10.002;2023-02-28T01:13:06;7.57;;;2.60;;
17345;SDS011;8790;53.590;10.002;2023-02-28T01:15:41;6.97;;;3.60;;
17345;SDS011;8790;53.590;10.002;2023-02-28T01:18:17;5.80;;;3.13;;
17345;SDS011;8790;53.590;10.002;2023-02-28T01:20:52;8.80;;;3.83;;
17345;SDS011;8790;53.590;10.002;2023-02-28T01:23:23;6.93;;;3.23;;
17345;SDS011;8790;53.590;10.002;2023-02-28T01:25:55;5.27;;;3.17;;
17345;SDS011;8790;53.590;10.002;2023-02-28T01:28:27;6.90;;;2.73;;
17345;SDS011;8790;53.590;10.002;2023-02-28T01:31:00;7.53;;;2.43;;
17345;SDS011;8790;53.590;10.002;2023-02-28T01:33:32;5.90;;;2.53;;
17345;SDS011;8790;53.590;10.002;2023-02-28T01:36:07;3.50;;;2.37;;
17345;SDS011;8790;53.590;10.002;2023-02-28T01:38:41;6.00;;;2.50;;
17345;SDS011;8790;53.590;10.002;2023-02-28T01:41:16;5.00;;;2.77;;
17345;SDS011;8790;53.590;10.002;2023-02-28T01:43:53;4.00;;;2.10;;
17345;SDS011;8790;53.590;10.002;2023-02-28T01:46:28;5.07;;;2.33;;
17345;SDS011;8790;53.590;10.002;2023-02-28T01:49:02;5.47;;;2.80;;
17345;SDS011;8790;53.590;10.002;2023-02-28T01:51:41;4.93;;;2.43;;
17345;SDS011;8790;53.590;10.002;2023-02-28T01:54:16;4.50;;;2.93;;
17345;SDS011;8790;53.590;10.002;2023-02-28T01:56:53;4.87;;;2.57;;
17345;SDS011;8790;53.590;10.002;2023-02-28T01:59:33;4.80;;;2.50;;
17345;SDS011;8790;53.590;10.002;2023-02-28T02:02:07;5.37;;;2.57;;
17345;SDS011;8790;53.590;10.002;2023-02-28T02:04:41;3.23;;;2.27;;
17345;SDS011;8790;53.590;10.002;2023-02-28T02:07:18;5.03;;;2.63;;
17345;SDS011;8790;53.590;10.002;2023-02-28T02:10:05;5.63;;;2.73;;
17345;SDS011;8790;53.590;10.002;2023-02-28T02:12:55;5.33;;;2.30;;
17345;SDS011;8790;53.590;10.002;2023-02-28T02:15:38;5.80;;;2.40;;
17345;SDS011;8790;53.590;10.002;2023-02-28T02:18:15;7.10;;;2.60;;
17345;SDS011;8790;53.590;10.002;2023-02-28T02:27:06;5.37;;;2.50;;
17345;SDS011;8790;53.590;10.002;2023-02-28T02:36:09;4.07;;;2.60;;
17345;SDS011;8790;53.590;10.002;2023-02-28T02:38:45;5.47;;;2.50;;
17345;SDS011;8790;53.590;10.002;2023-02-28T02:41:23;5.20;;;2.50;;
17345;SDS011;8790;53.590;10.002;2023-02-28T02:44:01;6.00;;;2.83;;
17345;SDS011;8790;53.590;10.002;2023-02-28T02:46:39;5.07;;;2.70;;
17345;SDS011;8790;53.590;10.002;2023-02-28T02:49:15;5.37;;;2.43;;
17345;SDS011;8790;53.590;10.002;2023-02-28T02:51:52;6.33;;;2.70;;
17345;SDS011;8790;53.590;10.002;2023-02-28T02:54:27;4.30;;;2.83;;
17345;SDS011;8790;53.590;10.002;2023-02-28T02:57:01;4.93;;;2.80;;
17345;SDS011;8790;53.590;10.002;2023-02-28T02:59:39;3.40;;;2.43;;
17345;SDS011;8790;53.590;10.002;2023-02-28T03:02:12;5.97;;;2.90;;
17345;SDS011;8790;53.590;10.002;2023-02-28T03:04:48;5.70;;;2.90;;
17345;SDS011;8790;53.590;10.002;2023-02-28T03:07:26;5.90;;;3.00;;
17345;SDS011;8790;53.590;10.002;2023-02-28T03:09:58;5.00;;;2.53;;
17345;SDS011;8790;53.590;10.002;2023-02-28T03:12:32;4.27;;;2.70;;
17345;SDS011;8790;53.590;10.002;2023-02-28T03:15:11;6.37;;;2.77;;
17345;SDS011;8790;53.590;10.002;2023-02-28T03:17:57;7.30;;;3.40;;
17345;SDS011;8790;53.590;10.002;2023-02-28T03:20:36;4.80;;;3.20;;
17345;SDS011;8790;53.590;10.002;2023-02-28T03:23:16;4.90;;;3.10;;
17345;SDS011;8790;53.590;10.002;2023-02-28T03:25:53;5.47;;;3.40;;
17345;SDS011;8790;53.590;10.002;2023-02-28T03:28:30;6.87;;;3.20;;
17345;SDS011;8790;53.590;10.002;2023-02-28T03:31:07;5.57;;;3.27;;
17345;SDS011;8790;53.590;10.002;2023-02-28T03:33:44;6.30;;;3.20;;
17345;SDS011;8790;53.590;10.002;2023-02-28T03:36:25;6.27;;;3.50;;
17345;SDS011;8790;53.590;10.002;2023-02-28T03:39:02;6.77;;;3.53;;
17345;SDS011;8790;53.590;10.002;2023-02-28T03:41:38;6.17;;;3.50;;
17345;SDS011;8790;53.590;10.002;2023-02-28T03:44:15;6.17;;;3.20;;
17345;SDS011;8790;53.590;10.002;2023-02-28T03:46:53;7.00;;;3.70;;
17345;SDS011;8790;53.590;10.002;2023-02-28T03:49:29;6.17;;;3.67;;
17345;SDS011;8790;53.590;10.002;2023-02-28T03:52:05;4.90;;;3.33;;
17345;SDS011;8790;53.590;10.002;2023-02-28T03:54:41;7.07;;;4.40;;
17345;SDS011;8790;53.590;10.002;2023-02-28T03:57:17;8.20;;;3.43;;
17345;SDS011;8790;53.590;10.002;2023-02-28T03:59:56;5.77;;;3.20;;
17345;SDS011;8790;53.590;10.002;2023-02-28T04:02:42;6.70;;;3.27;;
17345;SDS011;8790;53.590;10.002;2023-02-28T04:05:14;9.23;;;3.83;;
17345;SDS011;8790;53.590;10.002;2023-02-28T04:07:46;5.27;;;3.40;;
17345;SDS011;8790;53.590;10.002;2023-02-28T04:10:20;6.13;;;3.60;;
17345;SDS011;8790;53.590;10.002;2023-02-28T04:12:52;5.63;;;3.30;;
17345;SDS011;8790;53.590;10.002;2023-02-28T04:15:24;6.07;;;3.57;;
17345;SDS011;8790;53.590;10.002;2023-02-28T04:17:57;6.40;;;3.50;;
17345;SDS011;8790;53.590;10.002;2023-02-28T04:20:29;8.00;;;3.53;;
17345;SDS011;8790;53.590;10.002;2023-02-28T04:23:00;7.57;;;3.50;;
17345;SDS011;8790;53.590;10.002;2023-02-28T04:25:33;5.97;;;3.90;;
17345;SDS011;8790;53.590;10.002;2023-02-28T04:28:10;6.40;;;3.97;;
17345;SDS011;8790;53.590;10.002;2023-02-28T04:30:42;5.57;;;3.60;;
17345;SDS011;8790;53.590;10.002;2023-02-28T04:33:13;7.57;;;3.87;;
17345;SDS011;8790;53.590;10.002;2023-02-28T04:35:45;6.63;;;3.70;;
17345;SDS011;8790;53.590;10.002;2023-02-28T04:38:17;6.60;;;3.83;;
17345;SDS011;8790;53.590;10.002;2023-02-28T04:40:50;5.20;;;3.63;;
17345;SDS011;8790;53.590;10.002;2023-02-28T04:43:22;6.30;;;3.67;;
17345;SDS011;8790;53.590;10.002;2023-02-28T04:45:53;5.30;;;3.47;;
17345;SDS011;8790;53.590;10.002;2023-02-28T04:48:27;5.83;;;3.60;;
17345;SDS011;8790;53.590;10.002;2023-02-28T04:51:00;7.00;;;3.60;;
17345;SDS011;8790;53.590;10.002;2023-02-28T04:53:33;7.83;;;4.17;;
17345;SDS011;8790;53.590;10.002;2023-02-28T04:56:07;5.50;;;3.87;;
17345;SDS011;8790;53.590;10.002;2023-02-28T04:58:41;6.90;;;4.20;;
17345;SDS011;8790;53.590;10.002;2023-02-28T05:01:17;8.07;;;5.00;;
17345;SDS011;8790;53.590;10.002;2023-02-28T05:03:51;9.77;;;4.97;;
17345;SDS011;8790;53.590;10.002;2023-02-28T05:06:25;8.50;;;4.87;;
17345;SDS011;8790;53.590;10.002;2023-02-28T05:08:58;9.07;;;4.77;;
17345;SDS011;8790;53.590;10.002;2023-02-28T05:11:33;9.43;;;5.40;;
17345;SDS011;8790;53.590;10.002;2023-02-28T05:14:06;12.73;;;5.90;;
17345;SDS011;8790;53.590;10.002;2023-02-28T05:16:41;11.13;;;6.23;;
17345;SDS011;8790;53.590;10.002;2023-02-28T05:19:13;10.03;;;6.00;;
17345;SDS011;8790;53.590;10.002;2023-02-28T05:21:49;9.67;;;5.63;;
17345;SDS011;8790;53.590;10.002;2023-02-28T05:24:22;10.70;;;5.20;;
17345;SDS011;8790;53.590;10.002;2023-02-28T05:26:55;10.13;;;5.57;;
17345;SDS011;8790;53.590;10.002;2023-02-28T05:29:27;11.33;;;5.37;;
17345;SDS011;8790;53.590;10.002;2023-02-28T05:31:58;8.67;;;4.63;;
17345;SDS011;8790;53.590;10.002;2023-02-28T05:34:30;7.37;;;4.70;;
17345;SDS011;8790;53.590;10.002;2023-02-28T05:37:02;10.75;;;6.53;;
17345;SDS011;8790;53.590;10.002;2023-02-28T05:39:34;7.00;;;4.57;;
17345;SDS011;8790;53.590;10.002;2023-02-28T05:42:07;7.77;;;5.23;;
17345;SDS011;8790;53.590;10.002;2023-02-28T05:44:39;8.27;;;5.00;;
17345;SDS011;8790;53.590;10.002;2023-02-28T05:47:12;8.33;;;4.70;;
17345;SDS011;8790;53.590;10.002;2023-02-28T05:49:45;7.30;;;4.73;;
17345;SDS011;8790;53.590;10.002;2023-02-28T05:52:17;8.07;;;5.70;;
17345;SDS011;8790;53.590;10.002;2023-02-28T05:54:49;9.57;;;5.50;;
17345;SDS011;8790;53.590;10.002;2023-02-28T05:57:22;8.77;;;5.07;;
17345;SDS011;8790;53.590;10.002;2023-02-28T05:59:53;8.87;;;5.30;;
17345;SDS011;8790;53.590;10.002;2023-02-28T06:02:25;9.80;;;5.67;;
17345;SDS011;8790;53.590;10.002;2023-02-28T06:04:58;11.67;;;7.73;;
17345;SDS011;8790;53.590;10.002;2023-02-28T06:07:29;10.87;;;6.93;;
17345;SDS011;8790;53.590;10.002;2023-02-28T06:10:01;8.97;;;5.00;;
17345;SDS011;8790;53.590;10.002;2023-02-28T06:12:35;7.13;;;4.87;;
17345;SDS011;8790;53.590;10.002;2023-02-28T06:15:07;6.97;;;5.00;;
17345;SDS011;8790;53.590;10.002;2023-02-28T06:17:43;8.70;;;5.20;;
17345;SDS011;8790;53.590;10.002;2023-02-28T06:20:15;9.33;;;5.50;;
17345;SDS011;8790;53.590;10.002;2023-02-28T06:22:47;11.90;;;5.43;;
17345;SDS011;8790;53.590;10.002;2023-02-28T06:25:20;8.47;;;5.40;;
17345;SDS011;8790;53.590;10.002;2023-02-28T06:27:53;7.77;;;5.30;;
17345;SDS011;8790;53.590;10.002;2023-02-28T06:30:26;8.63;;;5.23;;
17345;SDS011;8790;53.590;10.002;2023-02-28T06:33:01;8.93;;;5.87;;
17345;SDS011;8790;53.590;10.002;2023-02-28T06:35:32;7.67;;;5.73;;
17345;SDS011;8790;53.590;10.002;2023-02-28T06:38:04;8.43;;;5.20;;
17345;SDS011;8790;53.590;10.002;2023-02-28T06:40:36;12.60;;;5.57;;
17345;SDS011;8790;53.590;10.002;2023-02-28T06:43:09;12.10;;;5.40;;
17345;SDS011;8790;53.590;10.002;2023-02-28T06:45:43;7.43;;;5.10;;
17345;SDS011;8790;53.590;10.002;2023-02-28T06:48:15;8.57;;;5.00;;
17345;SDS011;8790;53.590;10.002;2023-02-28T06:50:48;9.13;;;5.87;;
17345;SDS011;8790;53.590;10.002;2023-02-28T06:53:21;11.70;;;6.00;;
17345;SDS011;8790;53.590;10.002;2023-02-28T06:55:52;8.83;;;6.07;;
17345;SDS011;8790;53.590;10.002;2023-02-28T06:58:25;9.80;;;6.03;;
17345;SDS011;8790;53.590;10.002;2023-02-28T07:00:57;7.93;;;5.80;;
17345;SDS011;8790;53.590;10.002;2023-02-28T07:03:29;11.40;;;6.27;;
17345;SDS011;8790;53.590;10.002;2023-02-28T07:06:01;11.53;;;6.03;;
17345;SDS011;8790;53.590;10.002;2023-02-28T07:08:34;10.80;;;6.57;;
17345;SDS011;8790;53.590;10.002;2023-02-28T07:11:06;10.40;;;6.23;;
17345;SDS011;8790;53.590;10.002;2023-02-28T07:13:39;10.57;;;6.10;;
17345;SDS011;8790;53.590;10.002;2023-02-28T07:16:11;15.13;;;7.30;;
17345;SDS011;8790;53.590;10.002;2023-02-28T07:18:42;10.87;;;6.60;;
17345;SDS011;8790;53.590;10.002;2023-02-28T07:21:14;10.10;;;6.67;;
17345;SDS011;8790;53.590;10.002;2023-02-28T07:23:47;11.60;;;7.33;;
17345;SDS011;8790;53.590;10.002;2023-02-28T07:26:19;11.03;;;7.13;;
17345;SDS011;8790;53.590;10.002;2023-02-28T07:28:53;11.77;;;7.27;;
17345;SDS011;8790;53.590;10.002;2023-02-28T07:31:25;11.13;;;6.97;;
17345;SDS011;8790;53.590;10.002;2023-02-28T07:33:56;10.73;;;7.37;;
17345;SDS011;8790;53.590;10.002;2023-02-28T07:36:28;11.13;;;7.30;;
17345;SDS011;8790;53.590;10.002;2023-02-28T07:39:00;11.03;;;7.10;;
17345;SDS011;8790;53.590;10.002;2023-02-28T07:41:31;12.47;;;7.83;;
17345;SDS011;8790;53.590;10.002;2023-02-28T07:44:05;10.67;;;7.40;;
17345;SDS011;8790;53.590;10.002;2023-02-28T07:46:37;11.73;;;7.07;;
17345;SDS011;8790;53.590;10.002;2023-02-28T07:49:09;11.43;;;7.73;;
17345;SDS011;8790;53.590;10.002;2023-02-28T07:51:40;12.87;;;7.93;;
17345;SDS011;8790;53.590;10.002;2023-02-28T07:54:12;12.63;;;7.27;;
17345;SDS011;8790;53.590;10.002;2023-02-28T07:56:44;15.07;;;7.90;;
17345;SDS011;8790;53.590;10.002;2023-02-28T07:59:17;11.20;;;7.90;;
17345;SDS011;8790;53.590;10.002;2023-02-28T08:01:49;13.53;;;7.50;;
17345;SDS011;8790;53.590;10.002;2023-02-28T08:04:21;13.43;;;7.70;;
17345;SDS011;8790;53.590;10.002;2023-02-28T08:06:53;11.90;;;7.90;;
17345;SDS011;8790;53.590;10.002;2023-02-28T08:09:26;12.93;;;7.83;;
17345;SDS011;8790;53.590;10.002;2023-02-28T08:11:59;12.80;;;7.83;;
17345;SDS011;8790;53.590;10.002;2023-02-28T08:14:32;14.50;;;7.90;;
17345;SDS011;8790;53.590;10.002;2023-02-28T08:17:04;12.23;;;8.10;;
17345;SDS011;8790;53.590;10.002;2023-02-28T08:19:36;10.13;;;6.00;;
17345;SDS011;8790;53.590;10.002;2023-02-28T08:22:08;10.10;;;5.83;;
17345;SDS011;8790;53.590;10.002;2023-02-28T08:24:40;9.93;;;5.10;;
17345;SDS011;8790;53.590;10.002;2023-02-28T08:27:12;10.90;;;6.30;;
17345;SDS011;8790;53.590;10.002;2023-02-28T08:29:45;6.80;;;5.00;;
17345;SDS011;8790;53.590;10.002;2023-02-28T08:32:17;7.67;;;5.10;;
17345;SDS011;8790;53.590;10.002;2023-02-28T08:34:49;8.93;;;4.87;;
17345;SDS011;8790;53.590;10.002;2023-02-28T08:37:21;6.43;;;4.40;;
17345;SDS011;8790;53.590;10.002;2023-02-28T08:39:52;7.00;;;4.67;;
17345;SDS011;8790;53.590;10.002;2023-02-28T08:42:24;7.23;;;4.40;;
17345;SDS011;8790;53.590;10.002;2023-02-28T08:44:57;6.47;;;4.60;;
17345;SDS011;8790;53.590;10.002;2023-02-28T08:47:29;5.80;;;4.47;;
17345;SDS011;8790;53.590;10.002;2023-02-28T08:50:01;6.67;;;3.90;;
17345;SDS011;8790;53.590;10.002;2023-02-28T08:52:32;6.33;;;3.50;;
17345;SDS011;8790;53.590;10.002;2023-02-28T08:55:04;8.67;;;3.77;;
17345;SDS011;8790;53.590;10.002;2023-02-28T08:57:36;5.37;;;3.43;;
17345;SDS011;8790;53.590;10.002;2023-02-28T09:00:10;4.07;;;3.17;;
17345;SDS011;8790;53.590;10.002;2023-02-28T09:02:43;5.07;;;2.77;;
17345;SDS011;8790;53.590;10.002;2023-02-28T09:05:15;4.13;;;2.60;;
17345;SDS011;8790;53.590;10.002;2023-02-28T09:07:46;3.17;;;2.07;;
17345;SDS011;8790;53.590;10.002;2023-02-28T09:10:19;9.73;;;2.57;;
17345;SDS011;8790;53.590;10.002;2023-02-28T09:12:50;2.43;;;2.00;;
17345;SDS011;8790;53.590;10.002;2023-02-28T09:15:24;3.67;;;1.80;;
17345;SDS011;8790;53.590;10.002;2023-02-28T09:17:56;4.73;;;2.03;;
17345;SDS011;8790;53.590;10.002;2023-02-28T09:20:27;3.73;;;2.00;;
17345;SDS011;8790;53.590;10.002;2023-02-28T09:22:59;3.33;;;1.87;;
17345;SDS011;8790;53.590;10.002;2023-02-28T09:25:31;4.33;;;1.97;;
17345;SDS011;8790;53.590;10.002;2023-02-28T09:28:03;2.30;;;1.10;;
17345;SDS011;8790;53.590;10.002;2023-02-28T09:30:36;3.27;;;1.60;;
17345;SDS011;8790;53.590;10.002;2023-02-28T09:33:08;3.07;;;1.60;;
17345;SDS011;8790;53.590;10.002;2023-02-28T09:35:40;4.07;;;1.10;;
17345;SDS011;8790;53.590;10.002;2023-02-28T09:38:12;2.67;;;1.20;;
17345;SDS011;8790;53.590;10.002;2023-02-28T09:40:47;2.60;;;1.70;;
17345;SDS011;8790;53.590;10.002;2023-02-28T09:43:22;4.37;;;1.70;;
17345;SDS011;8790;53.590;10.002;2023-02-28T09:46:00;5.03;;;1.90;;
17345;SDS011;8790;53.590;10.002;2023-02-28T09:48:41;2.83;;;1.40;;
17345;SDS011;8790;53.590;10.002;2023-02-28T09:51:22;2.73;;;1.60;;
17345;SDS011;8790;53.590;10.002;2023-02-28T09:54:15;2.53;;;1.50;;
17345;SDS011;8790;53.590;10.002;2023-02-28T09:56:50;2.80;;;1.93;;
17345;SDS011;8790;53.590;10.002;2023-02-28T09:59:29;4.20;;;1.80;;
17345;SDS011;8790;53.590;10.002;2023-02-28T10:02:16;3.77;;;1.47;;
17345;SDS011;8790;53.590;10.002;2023-02-28T10:04:58;2.83;;;1.77;;
17345;SDS011;8790;53.590;10.002;2023-02-28T10:07:37;2.33;;;1.70;;
17345;SDS011;8790;53.590;10.002;2023-02-28T10:10:22;4.23;;;1.80;;
17345;SDS011;8790;53.590;10.002;2023-02-28T10:12:59;4.30;;;1.90;;
17345;SDS011;8790;53.590;10.002;2023-02-28T10:15:33;3.83;;;1.80;;
17345;SDS011;8790;53.590;10.002;2023-02-28T10:18:09;4.70;;;1.80;;
17345;SDS011;8790;53.590;10.002;2023-02-28T10:20:44;2.83;;;1.60;;
17345;SDS011;8790;53.590;10.002;2023-02-28T10:23:19;2.37;;;1.50;;
17345;SDS011;8790;53.590;10.002;2023-02-28T10:25:53;3.70;;;1.50;;
17345;SDS011;8790;53.590;10.002;2023-02-28T10:28:29;2.43;;;1.57;;
17345;SDS011;8790;53.590;10.002;2023-02-28T10:31:02;4.37;;;1.67;;
17345;SDS011;8790;53.590;10.002;2023-02-28T10:33:36;3.50;;;1.80;;
17345;SDS011;8790;53.590;10.002;2023-02-28T10:36:10;1.87;;;1.50;;
17345;SDS011;8790;53.590;10.002;2023-02-28T10:38:46;2.87;;;1.70;;
17345;SDS011;8790;53.590;10.002;2023-02-28T10:41:26;3.63;;;1.67;;
17345;SDS011;8790;53.590;10.002;2023-02-28T10:44:13;4.07;;;2.00;;
17345;SDS011;8790;53.590;10.002;2023-02-28T10:46:48;3.07;;;1.70;;
17345;SDS011;8790;53.590;10.002;2023-02-28T10:49:24;2.30;;;1.60;;
17345;SDS011;8790;53.590;10.002;2023-02-28T10:51:59;2.17;;;1.53;;
17345;SDS011;8790;53.590;10.002;2023-02-28T10:54:32;3.10;;;1.37;;
17345;SDS011;8790;53.590;10.002;2023-02-28T10:57:06;3.00;;;1.57;;
17345;SDS011;8790;53.590;10.002;2023-02-28T10:59:39;2.80;;;1.50;;
17345;SDS011;8790;53.590;10.002;2023-02-28T11:02:31;2.10;;;1.50;;
17345;SDS011;8790;53.590;10.002;2023-02-28T11:05:26;3.90;;;1.90;;
17345;SDS011;8790;53.590;10.002;2023-02-28T11:08:03;2.63;;;1.60;;
17345;SDS011;8790;53.590;10.002;2023-02-28T11:10:37;2.87;;;2.00;;
17345;SDS011;8790;53.590;10.002;2023-02-28T11:13:13;3.50;;;2.23;;
17345;SDS011;8790;53.590;10.002;2023-02-28T11:15:50;2.73;;;1.53;;
17345;SDS011;8790;53.590;10.002;2023-02-28T11:18:24;3.03;;;1.70;;
17345;SDS011;8790;53.590;10.002;2023-02-28T11:21:01;2.60;;;1.70;;
17345;SDS011;8790;53.590;10.002;2023-02-28T11:23:34;3.17;;;1.50;;
17345;SDS011;8790;53.590;10.002;2023-02-28T11:26:08;4.03;;;1.70;;
17345;SDS011;8790;53.590;10.002;2023-02-28T11:28:41;2.37;;;1.67;;
17345;SDS011;8790;53.590;10.002;2023-02-28T11:31:17;5.20;;;2.17;;
17345;SDS011;8790;53.590;10.002;2023-02-28T11:33:50;2.50;;;1.87;;
17345;SDS011;8790;53.590;10.002;2023-02-28T11:36:24;2.53;;;1.73;;
17345;SDS011;8790;53.590;10.002;2023-02-28T11:38:59;2.43;;;2.07;;
17345;SDS011;8790;53.590;10.002;2023-02-28T11:41:43;4.50;;;1.90;;
17345;SDS011;8790;53.590;10.002;2023-02-28T11:44:28;2.67;;;1.90;;
17345;SDS011;8790;53.590;10.002;2023-02-28T11:47:07;2.07;;;1.80;;
17345;SDS011;8790;53.590;10.002;2023-02-28T11:49:48;2.60;;;1.80;;
17345;SDS011;8790;53.590;10.002;2023-02-28T11:52:36;4.03;;;1.70;;
17345;SDS011;8790;53.590;10.002;2023-02-28T11:55:17;3.40;;;1.80;;
17345;SDS011;8790;53.590;10.002;2023-02-28T11:58:05;3.30;;;1.80;;
17345;SDS011;8790;53.590;10.002;2023-02-28T12:00:56;2.67;;;2.00;;
17345;SDS011;8790;53.590;10.002;2023-02-28T12:03:43;2.63;;;2.10;;
17345;SDS011;8790;53.590;10.002;2023-02-28T12:06:22;2.90;;;2.10;;
17345;SDS011;8790;53.590;10.002;2023-02-28T12:09:11;3.67;;;2.07;;
17345;SDS011;8790;53.590;10.002;2023-02-28T12:11:59;3.60;;;2.20;;
17345;SDS011;8790;53.590;10.002;2023-02-28T12:14:49;3.73;;;2.10;;
17345;SDS011;8790;53.590;10.002;2023-02-28T12:17:34;3.73;;;1.90;;
17345;SDS011;8790;53.590;10.002;2023-02-28T12:20:18;3.77;;;2.20;;
17345;SDS011;8790;53.590;10.002;2023-02-28T12:23:00;2.40;;;2.10;;
17345;SDS011;8790;53.590;10.002;2023-02-28T12:25:53;2.67;;;1.90;;
17345;SDS011;8790;53.590;10.002;2023-02-28T12:28:31;4.23;;;2.07;;
17345;SDS011;8790;53.590;10.002;2023-02-28T12:31:08;4.50;;;2.30;;
17345;SDS011;8790;53.590;10.002;2023-02-28T12:33:45;4.83;;;2.50;;
17345;SDS011;8790;53.590;10.002;2023-02-28T12:36:21;3.43;;;1.80;;
17345;SDS011;8790;53.590;10.002;2023-02-28T12:38:56;4.07;;;2.67;;
17345;SDS011;8790;53.590;10.002;2023-02-28T12:41:34;2.73;;;2.13;;
17345;SDS011;8790;53.590;10.002;2023-02-28T12:44:11;4.13;;;2.30;;
17345;SDS011;8790;53.590;10.002;2023-02-28T12:46:48;3.63;;;2.37;;
17345;SDS011;8790;53.590;10.002;2023-02-28T12:49:23;3.00;;;2.70;;
17345;SDS011;8790;53.590;10.002;2023-02-28T12:52:01;4.07;;;3.13;;
17345;SDS011;8790;53.590;10.002;2023-02-28T12:54:35;3.70;;;2.40;;
17345;SDS011;8790;53.590;10.002;2023-02-28T12:57:18;4.07;;;2.67;;
17345;SDS011;8790;53.590;10.002;2023-02-28T12:59:56;3.50;;;2.37;;
17345;SDS011;8790;53.590;10.002;2023-02-28T13:11:37;5.77;;;2.50;;
17345;SDS011;8790;53.590;10.002;2023-02-28T13:14:19;3.90;;;2.43;;
17345;SDS011;8790;53.590;10.002;2023-02-28T13:16:58;3.80;;;2.30;;
17345;SDS011;8790;53.590;10.002;2023-02-28T13:19:33;2.77;;;2.30;;
17345;SDS011;8790;53.590;10.002;2023-02-28T13:22:15;3.23;;;2.93;;
17345;SDS011;8790;53.590;10.002;2023-02-28T13:24:49;5.37;;;2.37;;
17345;SDS011;8790;53.590;10.002;2023-02-28T13:27:24;5.47;;;2.90;;
17345;SDS011;8790;53.590;10.002;2023-02-28T13:33:24;4.83;;;2.70;;
17345;SDS011;8790;53.590;10.002;2023-02-28T13:36:07;4.43;;;2.33;;
17345;SDS011;8790;53.590;10.002;2023-02-28T13:38:54;4.20;;;2.30;;
17345;SDS011;8790;53.590;10.002;2023-02-28T13:41:43;4.33;;;2.50;;
17345;SDS011;8790;53.590;10.002;2023-02-28T13:44:16;4.47;;;2.70;;
17345;SDS011;8790;53.590;10.002;2023-02-28T13:49:53;4.07;;;2.87;;
17345;SDS011;8790;53.590;10.002;2023-02-28T13:52:25;3.43;;;2.40;;
17345;SDS011;8790;53.590;10.002;2023-02-28T13:58:00;3.23;;;2.67;;
17345;SDS011;8790;53.590;10.002;2023-02-28T14:00:45;5.07;;;2.70;;
17345;SDS011;8790;53.590;10.002;2023-02-28T14:03:35;5.97;;;2.53;;
17345;SDS011;8790;53.590;10.002;2023-02-28T14:06:22;5.60;;;2.73;;
17345;SDS011;8790;53.590;10.002;2023-02-28T14:08:57;3.17;;;2.40;;
17345;SDS011;8790;53.590;10.002;2023-02-28T14:11:33;3.03;;;2.73;;
17345;SDS011;8790;53.590;10.002;2023-02-28T14:14:07;4.83;;;2.57;;
17345;SDS011;8790;53.590;10.002;2023-02-28T14:16:40;3.03;;;2.53;;
17345;SDS011;8790;53.590;10.002;2023-02-28T14:19:15;5.73;;;2.63;;
17345;SDS011;8790;53.590;10.002;2023-02-28T14:21:58;3.53;;;2.80;;
17345;SDS011;8790;53.590;10.002;2023-02-28T14:27:42;3.80;;;2.90;;
17345;SDS011;8790;53.590;10.002;2023-02-28T14:33:32;5.33;;;2.70;;
17345;SDS011;8790;53.590;10.002;2023-02-28T14:36:16;3.70;;;2.43;;
17345;SDS011;8790;53.590;10.002;2023-02-28T14:38:53;2.97;;;2.43;;
17345;SDS011;8790;53.590;10.002;2023-02-28T14:41:29;7.70;;;3.50;;
17345;SDS011;8790;53.590;10.002;2023-02-28T14:44:02;3.67;;;2.63;;
17345;SDS011;8790;53.590;10.002;2023-02-28T14:46:48;3.73;;;2.53;;
17345;SDS011;8790;53.590;10.002;2023-02-28T14:49:23;6.83;;;3.27;;
17345;SDS011;8790;53.590;10.002;2023-02-28T14:52:02;4.63;;;2.93;;
17345;SDS011;8790;53.590;10.002;2023-02-28T14:54:40;8.57;;;3.07;;
17345;SDS011;8790;53.590;10.002;2023-02-28T14:57:23;5.57;;;3.10;;
17345;SDS011;8790;53.590;10.002;2023-02-28T14:59:57;4.50;;;2.80;;
17345;SDS011;8790;53.590;10.002;2023-02-28T15:02:33;4.80;;;2.70;;
17345;SDS011;8790;53.590;10.002;2023-02-28T15:05:26;5.00;;;2.27;;
17345;SDS011;8790;53.590;10.002;2023-02-28T15:08:06;7.10;;;2.90;;
17345;SDS011;8790;53.590;10.002;2023-02-28T15:10:44;4.50;;;2.70;;
17345;SDS011;8790;53.590;10.002;2023-02-28T15:13:22;3.87;;;2.70;;
17345;SDS011;8790;53.590;10.002;2023-02-28T15:15:55;4.27;;;2.60;;
17345;SDS011;8790;53.590;10.002;2023-02-28T15:18:31;3.63;;;2.43;;
17345;SDS011;8790;53.590;10.002;2023-02-28T15:21:10;3.67;;;2.53;;
17345;SDS011;8790;53.590;10.002;2023-02-28T15:23:44;3.30;;;2.47;;
17345;SDS011;8790;53.590;10.002;2023-02-28T15:26:21;5.63;;;2.50;;
17345;SDS011;8790;53.590;10.002;2023-02-28T15:28:58;3.60;;;2.30;;
17345;SDS011;8790;53.590;10.002;2023-02-28T15:31:31;4.73;;;2.33;;
17345;SDS011;8790;53.590;10.002;2023-02-28T15:34:06;3.60;;;2.17;;
17345;SDS011;8790;53.590;10.002;2023-02-28T15:36:48;4.10;;;2.20;;
17345;SDS011;8790;53.590;10.002;2023-02-28T15:39:20;5.67;;;2.53;;
17345;SDS011;8790;53.590;10.002;2023-02-28T15:44:42;3.07;;;2.10;;
17345;SDS011;8790;53.590;10.002;2023-02-28T15:47:15;6.93;;;2.70;;
17345;SDS011;8790;53.590;10.002;2023-02-28T15:49:51;2.77;;;2.10;;
17345;SDS011;8790;53.590;10.002;2023-02-28T15:52:29;10.00;;;2.40;;
17345;SDS011;8790;53.590;10.002;2023-02-28T15:55:09;2.70;;;1.93;;
17345;SDS011;8790;53.590;10.002;2023-02-28T15:57:45;3.70;;;1.80;;
17345;SDS011;8790;53.590;10.002;2023-02-28T16:00:19;2.80;;;2.03;;
17345;SDS011;8790;53.590;10.002;2023-02-28T16:02:52;3.73;;;2.43;;
17345;SDS011;8790;53.590;10.002;2023-02-28T16:05:25;4.13;;;2.67;;
17345;SDS011;8790;53.590;10.002;2023-02-28T16:08:08;3.60;;;2.50;;
17345;SDS011;8790;53.590;10.002;2023-02-28T16:10:45;4.00;;;2.43;;
17345;SDS011;8790;53.590;10.002;2023-02-28T16:13:18;3.93;;;2.27;;
17345;SDS011;8790;53.590;10.002;2023-02-28T16:15:49;3.97;;;2.27;;